sensor_id;sensor_type;location;lat;lon;timestamp;temperature;humidity
78779;DHT22;68121;52.404;5.318;2023-07-31T00:01:06;16.40;74.70
78779;DHT22;68121;52.404;5.318;2023-07-31T00:03:32;16.40;74.70
78779;DHT22;68121;52.404;5.318;2023-07-31T00:05:58;16.40;74.70
78779;DHT22;68121;52.404;5.318;2023-07-31T00:08:24;16.40;74.70
78779;DHT22;68121;52.404;5.318;2023-07-31T00:10:53;16.40;74.80
78779;DHT22;68121;52.404;5.318;2023-07-31T00:13:19;16.40;74.90
78779;DHT22;68121;52.404;5.318;2023-07-31T00:15:45;16.40;74.80
78779;DHT22;68121;52.404;5.318;2023-07-31T00:18:11;16.40;74.90
78779;DHT22;68121;52.404;5.318;2023-07-31T00:20:37;16.40;75.00
78779;DHT22;68121;52.404;5.318;2023-07-31T00:23:03;16.50;75.10
78779;DHT22;68121;52.404;5.318;2023-07-31T00:25:29;16.50;75.10
78779;DHT22;68121;52.404;5.318;2023-07-31T00:27:55;16.60;75.10
78779;DHT22;68121;52.404;5.318;2023-07-31T00:30:21;16.60;75.30
78779;DHT22;68121;52.404;5.318;2023-07-31T00:32:48;16.70;75.30
78779;DHT22;68121;52.404;5.318;2023-07-31T00:35:14;16.70;75.40
78779;DHT22;68121;52.404;5.318;2023-07-31T00:37:40;16.80;75.30
78779;DHT22;68121;52.404;5.318;2023-07-31T00:40:07;16.90;75.30
78779;DHT22;68121;52.404;5.318;2023-07-31T00:42:33;16.90;75.40
78779;DHT22;68121;52.404;5.318;2023-07-31T00:44:59;17.00;75.40
78779;DHT22;68121;52.404;5.318;2023-07-31T00:47:25;17.00;75.40
78779;DHT22;68121;52.404;5.318;2023-07-31T00:49:52;17.10;75.40
78779;DHT22;68121;52.404;5.318;2023-07-31T00:52:18;17.20;75.30
78779;DHT22;68121;52.404;5.318;2023-07-31T00:54:45;17.20;75.40
78779;DHT22;68121;52.404;5.318;2023-07-31T00:57:11;17.20;75.40
78779;DHT22;68121;52.404;5.318;2023-07-31T00:59:38;17.20;75.40
78779;DHT22;68121;52.404;5.318;2023-07-31T01:02:05;17.30;75.50
78779;DHT22;68121;52.404;5.318;2023-07-31T01:04:31;17.30;75.50
78779;DHT22;68121;52.404;5.318;2023-07-31T01:07:26;17.40;75.50
78779;DHT22;68121;52.404;5.318;2023-07-31T01:10:18;17.40;75.60
78779;DHT22;68121;52.404;5.318;2023-07-31T01:12:47;17.40;75.50
78779;DHT22;68121;52.404;5.318;2023-07-31T01:15:14;17.40;75.50
78779;DHT22;68121;52.404;5.318;2023-07-31T01:17:42;17.40;75.50
78779;DHT22;68121;52.404;5.318;2023-07-31T01:20:17;17.40;75.50
78779;DHT22;68121;52.404;5.318;2023-07-31T01:26:01;17.40;75.70
78779;DHT22;68121;52.404;5.318;2023-07-31T01:28:44;17.40;75.80
78779;DHT22;68121;52.404;5.318;2023-07-31T01:31:17;17.40;75.80
78779;DHT22;68121;52.404;5.318;2023-07-31T01:33:43;17.30;75.80
78779;DHT22;68121;52.404;5.318;2023-07-31T01:36:10;17.40;75.70
78779;DHT22;68121;52.404;5.318;2023-07-31T01:38:37;17.40;75.70
78779;DHT22;68121;52.404;5.318;2023-07-31T01:41:03;17.40;75.60
78779;DHT22;68121;52.404;5.318;2023-07-31T01:43:29;17.40;75.70
78779;DHT22;68121;52.404;5.318;2023-07-31T01:45:55;17.40;75.80
78779;DHT22;68121;52.404;5.318;2023-07-31T01:48:21;17.40;75.80
78779;DHT22;68121;52.404;5.318;2023-07-31T01:50:47;17.40;75.80
78779;DHT22;68121;52.404;5.318;2023-07-31T01:53:13;17.40;75.90
78779;DHT22;68121;52.404;5.318;2023-07-31T01:55:39;17.40;75.90
78779;DHT22;68121;52.404;5.318;2023-07-31T01:58:05;17.40;76.00
78779;DHT22;68121;52.404;5.318;2023-07-31T02:00:31;17.40;76.00
78779;DHT22;68121;52.404;5.318;2023-07-31T02:02:59;17.30;76.00
78779;DHT22;68121;52.404;5.318;2023-07-31T02:05:25;17.40;76.10
78779;DHT22;68121;52.404;5.318;2023-07-31T02:07:51;17.30;76.00
78779;DHT22;68121;52.404;5.318;2023-07-31T02:10:17;17.30;76.10
78779;DHT22;68121;52.404;5.318;2023-07-31T02:12:43;17.30;76.10
78779;DHT22;68121;52.404;5.318;2023-07-31T02:15:11;17.30;76.20
78779;DHT22;68121;52.404;5.318;2023-07-31T02:17:38;17.20;76.20
78779;DHT22;68121;52.404;5.318;2023-07-31T02:20:04;17.20;76.20
78779;DHT22;68121;52.404;5.318;2023-07-31T02:22:30;17.20;76.20
78779;DHT22;68121;52.404;5.318;2023-07-31T02:24:56;17.30;76.20
78779;DHT22;68121;52.404;5.318;2023-07-31T02:27:22;17.30;76.20
78779;DHT22;68121;52.404;5.318;2023-07-31T02:29:53;17.30;76.20
78779;DHT22;68121;52.404;5.318;2023-07-31T02:32:19;17.30;76.20
78779;DHT22;68121;52.404;5.318;2023-07-31T02:34:45;17.30;76.20
78779;DHT22;68121;52.404;5.318;2023-07-31T02:37:11;17.30;76.20
78779;DHT22;68121;52.404;5.318;2023-07-31T02:39:39;17.30;76.20
78779;DHT22;68121;52.404;5.318;2023-07-31T02:42:05;17.30;76.20
78779;DHT22;68121;52.404;5.318;2023-07-31T02:44:31;17.40;76.30
78779;DHT22;68121;52.404;5.318;2023-07-31T02:46:57;17.30;76.30
78779;DHT22;68121;52.404;5.318;2023-07-31T02:49:23;17.40;76.30
78779;DHT22;68121;52.404;5.318;2023-07-31T02:51:49;17.30;76.30
78779;DHT22;68121;52.404;5.318;2023-07-31T02:54:15;17.30;76.40
78779;DHT22;68121;52.404;5.318;2023-07-31T02:56:41;17.30;76.30
78779;DHT22;68121;52.404;5.318;2023-07-31T02:59:07;17.40;76.40
78779;DHT22;68121;52.404;5.318;2023-07-31T03:01:33;17.40;76.30
78779;DHT22;68121;52.404;5.318;2023-07-31T03:03:59;17.30;76.40
78779;DHT22;68121;52.404;5.318;2023-07-31T03:06:25;17.30;76.40
78779;DHT22;68121;52.404;5.318;2023-07-31T03:08:53;17.30;76.50
78779;DHT22;68121;52.404;5.318;2023-07-31T03:11:19;17.20;76.50
78779;DHT22;68121;52.404;5.318;2023-07-31T03:13:45;17.30;76.50
78779;DHT22;68121;52.404;5.318;2023-07-31T03:16:11;17.20;76.50
78779;DHT22;68121;52.404;5.318;2023-07-31T03:18:37;17.20;76.40
78779;DHT22;68121;52.404;5.318;2023-07-31T03:21:04;17.20;76.50
78779;DHT22;68121;52.404;5.318;2023-07-31T03:23:30;17.30;76.50
78779;DHT22;68121;52.404;5.318;2023-07-31T03:25:58;17.20;76.40
78779;DHT22;68121;52.404;5.318;2023-07-31T03:28:24;17.30;76.50
78779;DHT22;68121;52.404;5.318;2023-07-31T03:30:52;17.20;76.40
78779;DHT22;68121;52.404;5.318;2023-07-31T03:33:18;17.20;76.40
78779;DHT22;68121;52.404;5.318;2023-07-31T03:35:45;17.20;76.50
78779;DHT22;68121;52.404;5.318;2023-07-31T03:38:11;17.20;76.50
78779;DHT22;68121;52.404;5.318;2023-07-31T03:40:37;17.20;76.50
78779;DHT22;68121;52.404;5.318;2023-07-31T03:43:05;17.20;76.50
78779;DHT22;68121;52.404;5.318;2023-07-31T03:45:31;17.20;76.60
78779;DHT22;68121;52.404;5.318;2023-07-31T03:47:57;17.20;76.50
78779;DHT22;68121;52.404;5.318;2023-07-31T03:50:23;17.20;76.60
78779;DHT22;68121;52.404;5.318;2023-07-31T03:52:51;17.20;76.60
78779;DHT22;68121;52.404;5.318;2023-07-31T03:55:18;17.20;76.60
78779;DHT22;68121;52.404;5.318;2023-07-31T03:57:45;17.30;76.50
78779;DHT22;68121;52.404;5.318;2023-07-31T04:00:11;17.20;76.50
78779;DHT22;68121;52.404;5.318;2023-07-31T04:02:37;17.20;76.50
78779;DHT22;68121;52.404;5.318;2023-07-31T04:05:03;17.20;76.50
78779;DHT22;68121;52.404;5.318;2023-07-31T04:07:29;17.20;76.50
78779;DHT22;68121;52.404;5.318;2023-07-31T04:09:56;17.20;76.50
78779;DHT22;68121;52.404;5.318;2023-07-31T04:12:23;17.20;76.50
78779;DHT22;68121;52.404;5.318;2023-07-31T04:14:51;17.20;76.50
78779;DHT22;68121;52.404;5.318;2023-07-31T04:17:18;17.20;76.50
78779;DHT22;68121;52.404;5.318;2023-07-31T04:19:44;17.20;76.50
78779;DHT22;68121;52.404;5.318;2023-07-31T04:22:10;17.20;76.50
78779;DHT22;68121;52.404;5.318;2023-07-31T04:24:36;17.20;76.50
78779;DHT22;68121;52.404;5.318;2023-07-31T04:27:03;17.20;76.50
78779;DHT22;68121;52.404;5.318;2023-07-31T04:29:29;17.20;76.50
78779;DHT22;68121;52.404;5.318;2023-07-31T04:31:55;17.20;76.50
78779;DHT22;68121;52.404;5.318;2023-07-31T04:34:21;17.20;76.50
78779;DHT22;68121;52.404;5.318;2023-07-31T04:36:47;17.20;76.50
78779;DHT22;68121;52.404;5.318;2023-07-31T04:39:13;17.20;76.50
78779;DHT22;68121;52.404;5.318;2023-07-31T04:41:39;17.20;76.50
78779;DHT22;68121;52.404;5.318;2023-07-31T04:44:05;17.20;76.50
78779;DHT22;68121;52.404;5.318;2023-07-31T04:46:31;17.20;76.50
78779;DHT22;68121;52.404;5.318;2023-07-31T04:48:57;17.20;76.50
78779;DHT22;68121;52.404;5.318;2023-07-31T04:51:23;17.20;76.60
78779;DHT22;68121;52.404;5.318;2023-07-31T04:53:49;17.20;76.60
78779;DHT22;68121;52.404;5.318;2023-07-31T04:56:16;17.20;76.60
78779;DHT22;68121;52.404;5.318;2023-07-31T04:58:42;17.20;76.70
78779;DHT22;68121;52.404;5.318;2023-07-31T05:01:08;17.20;76.60
78779;DHT22;68121;52.404;5.318;2023-07-31T05:03:34;17.10;76.70
78779;DHT22;68121;52.404;5.318;2023-07-31T05:06:00;17.10;76.70
78779;DHT22;68121;52.404;5.318;2023-07-31T05:08:26;17.10;76.60
78779;DHT22;68121;52.404;5.318;2023-07-31T05:10:52;17.10;76.80
78779;DHT22;68121;52.404;5.318;2023-07-31T05:13:18;17.00;76.70
78779;DHT22;68121;52.404;5.318;2023-07-31T05:15:45;17.00;76.80
78779;DHT22;68121;52.404;5.318;2023-07-31T05:18:11;17.00;76.90
78779;DHT22;68121;52.404;5.318;2023-07-31T05:20:37;17.00;76.90
78779;DHT22;68121;52.404;5.318;2023-07-31T05:23:03;17.00;77.00
78779;DHT22;68121;52.404;5.318;2023-07-31T05:25:29;17.00;76.90
78779;DHT22;68121;52.404;5.318;2023-07-31T05:27:55;17.00;77.10
78779;DHT22;68121;52.404;5.318;2023-07-31T05:30:21;17.00;77.10
78779;DHT22;68121;52.404;5.318;2023-07-31T05:32:47;17.00;77.20
78779;DHT22;68121;52.404;5.318;2023-07-31T05:35:13;17.00;77.10
78779;DHT22;68121;52.404;5.318;2023-07-31T05:37:39;16.90;77.20
78779;DHT22;68121;52.404;5.318;2023-07-31T05:40:06;16.90;77.20
78779;DHT22;68121;52.404;5.318;2023-07-31T05:42:32;16.90;77.20
78779;DHT22;68121;52.404;5.318;2023-07-31T05:44:58;16.90;77.30
78779;DHT22;68121;52.404;5.318;2023-07-31T05:47:24;16.80;77.30
78779;DHT22;68121;52.404;5.318;2023-07-31T05:49:50;16.80;77.40
78779;DHT22;68121;52.404;5.318;2023-07-31T05:52:19;16.80;77.30
78779;DHT22;68121;52.404;5.318;2023-07-31T05:54:45;16.80;77.30
78779;DHT22;68121;52.404;5.318;2023-07-31T05:57:11;16.80;77.30
78779;DHT22;68121;52.404;5.318;2023-07-31T05:59:38;16.70;77.30
78779;DHT22;68121;52.404;5.318;2023-07-31T06:02:04;16.70;77.30
78779;DHT22;68121;52.404;5.318;2023-07-31T06:04:30;16.70;77.30
78779;DHT22;68121;52.404;5.318;2023-07-31T06:06:56;16.70;77.30
78779;DHT22;68121;52.404;5.318;2023-07-31T06:09:22;16.70;77.30
78779;DHT22;68121;52.404;5.318;2023-07-31T06:11:48;16.70;77.40
78779;DHT22;68121;52.404;5.318;2023-07-31T06:14:14;16.70;77.30
78779;DHT22;68121;52.404;5.318;2023-07-31T06:16:40;16.70;77.30
78779;DHT22;68121;52.404;5.318;2023-07-31T06:19:07;16.60;77.40
78779;DHT22;68121;52.404;5.318;2023-07-31T06:21:33;16.70;77.40
78779;DHT22;68121;52.404;5.318;2023-07-31T06:23:59;16.60;77.40
78779;DHT22;68121;52.404;5.318;2023-07-31T06:26:25;16.60;77.40
78779;DHT22;68121;52.404;5.318;2023-07-31T06:28:51;16.60;77.50
78779;DHT22;68121;52.404;5.318;2023-07-31T06:31:17;16.60;77.50
78779;DHT22;68121;52.404;5.318;2023-07-31T06:33:46;16.60;77.50
78779;DHT22;68121;52.404;5.318;2023-07-31T06:36:12;16.70;77.60
78779;DHT22;68121;52.404;5.318;2023-07-31T06:38:38;16.70;77.50
78779;DHT22;68121;52.404;5.318;2023-07-31T06:41:04;16.70;77.50
78779;DHT22;68121;52.404;5.318;2023-07-31T06:43:30;16.70;77.60
78779;DHT22;68121;52.404;5.318;2023-07-31T06:45:57;16.70;77.60
78779;DHT22;68121;52.404;5.318;2023-07-31T06:48:23;16.70;77.70
78779;DHT22;68121;52.404;5.318;2023-07-31T06:50:49;16.70;77.60
78779;DHT22;68121;52.404;5.318;2023-07-31T06:53:15;16.70;77.60
78779;DHT22;68121;52.404;5.318;2023-07-31T06:55:41;16.80;77.60
78779;DHT22;68121;52.404;5.318;2023-07-31T06:58:07;16.80;77.60
78779;DHT22;68121;52.404;5.318;2023-07-31T07:00:33;16.80;77.60
78779;DHT22;68121;52.404;5.318;2023-07-31T07:02:59;16.80;77.70
78779;DHT22;68121;52.404;5.318;2023-07-31T07:05:25;16.80;77.60
78779;DHT22;68121;52.404;5.318;2023-07-31T07:07:51;16.80;77.70
78779;DHT22;68121;52.404;5.318;2023-07-31T07:10:18;16.90;77.70
78779;DHT22;68121;52.404;5.318;2023-07-31T07:12:44;16.90;77.80
78779;DHT22;68121;52.404;5.318;2023-07-31T07:15:10;16.90;77.80
78779;DHT22;68121;52.404;5.318;2023-07-31T07:17:36;17.00;77.80
78779;DHT22;68121;52.404;5.318;2023-07-31T07:20:02;17.00;77.80
78779;DHT22;68121;52.404;5.318;2023-07-31T07:22:29;17.00;77.80
78779;DHT22;68121;52.404;5.318;2023-07-31T07:24:56;17.00;77.80
78779;DHT22;68121;52.404;5.318;2023-07-31T07:27:22;17.00;77.80
78779;DHT22;68121;52.404;5.318;2023-07-31T07:29:51;17.00;77.90
78779;DHT22;68121;52.404;5.318;2023-07-31T07:32:18;17.00;77.90
78779;DHT22;68121;52.404;5.318;2023-07-31T07:34:44;17.00;77.90
78779;DHT22;68121;52.404;5.318;2023-07-31T07:37:11;17.10;78.00
78779;DHT22;68121;52.404;5.318;2023-07-31T07:39:37;17.10;78.00
78779;DHT22;68121;52.404;5.318;2023-07-31T07:42:03;17.20;77.90
78779;DHT22;68121;52.404;5.318;2023-07-31T07:44:29;17.20;78.00
78779;DHT22;68121;52.404;5.318;2023-07-31T07:46:55;17.20;78.00
78779;DHT22;68121;52.404;5.318;2023-07-31T07:49:21;17.20;78.00
78779;DHT22;68121;52.404;5.318;2023-07-31T07:51:50;17.20;78.10
78779;DHT22;68121;52.404;5.318;2023-07-31T07:54:16;17.20;78.10
78779;DHT22;68121;52.404;5.318;2023-07-31T07:56:43;17.20;78.10
78779;DHT22;68121;52.404;5.318;2023-07-31T07:59:09;17.20;78.10
78779;DHT22;68121;52.404;5.318;2023-07-31T08:01:35;17.30;78.10
78779;DHT22;68121;52.404;5.318;2023-07-31T08:04:01;17.40;78.10
78779;DHT22;68121;52.404;5.318;2023-07-31T08:06:28;17.40;78.10
78779;DHT22;68121;52.404;5.318;2023-07-31T08:08:55;17.40;78.10
78779;DHT22;68121;52.404;5.318;2023-07-31T08:11:21;17.50;78.10
78779;DHT22;68121;52.404;5.318;2023-07-31T08:13:49;17.50;78.10
78779;DHT22;68121;52.404;5.318;2023-07-31T08:16:16;17.50;78.10
78779;DHT22;68121;52.404;5.318;2023-07-31T08:18:42;17.50;78.10
78779;DHT22;68121;52.404;5.318;2023-07-31T08:21:11;17.50;78.10
78779;DHT22;68121;52.404;5.318;2023-07-31T08:23:37;17.50;78.20
78779;DHT22;68121;52.404;5.318;2023-07-31T08:26:03;17.50;78.20
78779;DHT22;68121;52.404;5.318;2023-07-31T08:28:29;17.60;78.30
78779;DHT22;68121;52.404;5.318;2023-07-31T08:30:55;17.60;78.20
78779;DHT22;68121;52.404;5.318;2023-07-31T08:33:21;17.70;78.30
78779;DHT22;68121;52.404;5.318;2023-07-31T08:35:47;17.70;78.30
78779;DHT22;68121;52.404;5.318;2023-07-31T08:38:14;17.80;78.20
78779;DHT22;68121;52.404;5.318;2023-07-31T08:40:40;17.80;78.30
78779;DHT22;68121;52.404;5.318;2023-07-31T08:43:08;17.80;78.30
78779;DHT22;68121;52.404;5.318;2023-07-31T08:45:34;17.80;78.20
78779;DHT22;68121;52.404;5.318;2023-07-31T08:48:01;17.80;78.30
78779;DHT22;68121;52.404;5.318;2023-07-31T08:50:27;17.80;78.30
78779;DHT22;68121;52.404;5.318;2023-07-31T08:52:54;17.90;78.30
78779;DHT22;68121;52.404;5.318;2023-07-31T08:55:21;17.90;78.40
78779;DHT22;68121;52.404;5.318;2023-07-31T08:57:51;18.00;78.30
78779;DHT22;68121;52.404;5.318;2023-07-31T09:00:18;18.00;78.40
78779;DHT22;68121;52.404;5.318;2023-07-31T09:05:23;18.10;78.40
78779;DHT22;68121;52.404;5.318;2023-07-31T09:07:50;18.10;78.40
78779;DHT22;68121;52.404;5.318;2023-07-31T09:10:17;18.10;78.50
78779;DHT22;68121;52.404;5.318;2023-07-31T09:12:43;18.10;78.50
78779;DHT22;68121;52.404;5.318;2023-07-31T09:15:12;18.20;78.60
78779;DHT22;68121;52.404;5.318;2023-07-31T09:17:38;18.20;78.50
78779;DHT22;68121;52.404;5.318;2023-07-31T09:20:18;18.20;78.50
78779;DHT22;68121;52.404;5.318;2023-07-31T09:22:46;18.30;78.60
78779;DHT22;68121;52.404;5.318;2023-07-31T09:25:22;18.30;78.50
78779;DHT22;68121;52.404;5.318;2023-07-31T09:27:53;18.30;78.50
78779;DHT22;68121;52.404;5.318;2023-07-31T09:30:20;18.30;78.60
78779;DHT22;68121;52.404;5.318;2023-07-31T09:32:47;18.30;78.60
78779;DHT22;68121;52.404;5.318;2023-07-31T09:35:31;18.30;78.50
78779;DHT22;68121;52.404;5.318;2023-07-31T09:37:59;18.30;78.60
78779;DHT22;68121;52.404;5.318;2023-07-31T09:40:27;18.30;78.60
78779;DHT22;68121;52.404;5.318;2023-07-31T09:42:57;18.30;78.60
78779;DHT22;68121;52.404;5.318;2023-07-31T09:45:24;18.30;78.60
78779;DHT22;68121;52.404;5.318;2023-07-31T09:47:50;18.40;78.60
78779;DHT22;68121;52.404;5.318;2023-07-31T09:50:16;18.40;78.70
78779;DHT22;68121;52.404;5.318;2023-07-31T09:52:43;18.40;78.70
78779;DHT22;68121;52.404;5.318;2023-07-31T09:55:10;18.40;78.70
78779;DHT22;68121;52.404;5.318;2023-07-31T09:57:40;18.50;78.80
78779;DHT22;68121;52.404;5.318;2023-07-31T10:00:10;18.50;78.90
78779;DHT22;68121;52.404;5.318;2023-07-31T10:02:38;18.50;78.80
78779;DHT22;68121;52.404;5.318;2023-07-31T10:05:06;18.60;78.80
78779;DHT22;68121;52.404;5.318;2023-07-31T10:07:39;18.60;78.90
78779;DHT22;68121;52.404;5.318;2023-07-31T10:10:07;18.70;78.80
78779;DHT22;68121;52.404;5.318;2023-07-31T10:12:35;18.80;78.70
78779;DHT22;68121;52.404;5.318;2023-07-31T10:15:02;18.80;78.60
78779;DHT22;68121;52.404;5.318;2023-07-31T10:17:30;18.90;78.60
78779;DHT22;68121;52.404;5.318;2023-07-31T10:20:01;18.90;78.60
78779;DHT22;68121;52.404;5.318;2023-07-31T10:22:30;18.90;78.70
78779;DHT22;68121;52.404;5.318;2023-07-31T10:24:58;18.90;78.60
78779;DHT22;68121;52.404;5.318;2023-07-31T10:27:25;18.90;78.60
78779;DHT22;68121;52.404;5.318;2023-07-31T10:29:53;18.90;78.60
78779;DHT22;68121;52.404;5.318;2023-07-31T10:32:21;18.90;78.60
78779;DHT22;68121;52.404;5.318;2023-07-31T10:34:47;19.00;78.70
78779;DHT22;68121;52.404;5.318;2023-07-31T10:37:36;19.00;78.60
78779;DHT22;68121;52.404;5.318;2023-07-31T10:40:05;19.00;78.60
78779;DHT22;68121;52.404;5.318;2023-07-31T10:45:11;19.10;78.40
78779;DHT22;68121;52.404;5.318;2023-07-31T10:47:46;19.10;78.30
78779;DHT22;68121;52.404;5.318;2023-07-31T10:50:21;19.20;78.30
78779;DHT22;68121;52.404;5.318;2023-07-31T10:52:48;19.20;78.30
78779;DHT22;68121;52.404;5.318;2023-07-31T10:57:47;19.20;78.20
78779;DHT22;68121;52.404;5.318;2023-07-31T11:00:28;19.20;78.20
78779;DHT22;68121;52.404;5.318;2023-07-31T11:03:01;19.30;78.20
78779;DHT22;68121;52.404;5.318;2023-07-31T11:08:21;19.30;78.20
78779;DHT22;68121;52.404;5.318;2023-07-31T11:13:33;19.30;78.10
78779;DHT22;68121;52.404;5.318;2023-07-31T11:16:00;19.30;78.00
78779;DHT22;68121;52.404;5.318;2023-07-31T11:18:27;19.30;78.10
78779;DHT22;68121;52.404;5.318;2023-07-31T11:20:53;19.30;78.00
78779;DHT22;68121;52.404;5.318;2023-07-31T11:23:21;19.40;77.90
78779;DHT22;68121;52.404;5.318;2023-07-31T11:25:47;19.50;77.80
78779;DHT22;68121;52.404;5.318;2023-07-31T11:28:14;19.50;77.70
78779;DHT22;68121;52.404;5.318;2023-07-31T11:30:42;19.50;77.60
78779;DHT22;68121;52.404;5.318;2023-07-31T11:33:09;19.50;77.60
78779;DHT22;68121;52.404;5.318;2023-07-31T11:35:45;19.50;77.60
78779;DHT22;68121;52.404;5.318;2023-07-31T11:38:12;19.70;77.60
78779;DHT22;68121;52.404;5.318;2023-07-31T11:40:42;19.70;77.60
78779;DHT22;68121;52.404;5.318;2023-07-31T11:43:09;19.80;77.50
78779;DHT22;68121;52.404;5.318;2023-07-31T11:45:35;19.80;77.40
78779;DHT22;68121;52.404;5.318;2023-07-31T11:48:01;19.80;77.20
78779;DHT22;68121;52.404;5.318;2023-07-31T11:50:30;19.80;77.30
78779;DHT22;68121;52.404;5.318;2023-07-31T11:53:01;19.70;77.30
78779;DHT22;68121;52.404;5.318;2023-07-31T11:55:29;19.70;77.30
78779;DHT22;68121;52.404;5.318;2023-07-31T11:57:57;19.70;77.30
78779;DHT22;68121;52.404;5.318;2023-07-31T12:00:25;19.70;77.20
78779;DHT22;68121;52.404;5.318;2023-07-31T12:02:52;19.70;77.30
78779;DHT22;68121;52.404;5.318;2023-07-31T12:05:18;19.70;77.20
78779;DHT22;68121;52.404;5.318;2023-07-31T12:07:52;19.70;77.20
78779;DHT22;68121;52.404;5.318;2023-07-31T12:10:38;19.70;77.10
78779;DHT22;68121;52.404;5.318;2023-07-31T12:13:11;19.70;77.20
78779;DHT22;68121;52.404;5.318;2023-07-31T12:15:45;19.70;77.10
78779;DHT22;68121;52.404;5.318;2023-07-31T12:18:15;19.70;77.10
78779;DHT22;68121;52.404;5.318;2023-07-31T12:20:44;19.70;77.00
78779;DHT22;68121;52.404;5.318;2023-07-31T12:23:18;19.70;77.00
78779;DHT22;68121;52.404;5.318;2023-07-31T12:25:45;19.70;76.90
78779;DHT22;68121;52.404;5.318;2023-07-31T12:28:11;19.70;76.80
78779;DHT22;68121;52.404;5.318;2023-07-31T12:30:39;19.80;76.80
78779;DHT22;68121;52.404;5.318;2023-07-31T12:33:12;19.80;76.70
78779;DHT22;68121;52.404;5.318;2023-07-31T12:35:41;19.90;76.60
78779;DHT22;68121;52.404;5.318;2023-07-31T12:38:07;19.90;76.60
78779;DHT22;68121;52.404;5.318;2023-07-31T12:40:35;20.00;76.50
78779;DHT22;68121;52.404;5.318;2023-07-31T12:43:01;20.00;76.40
78779;DHT22;68121;52.404;5.318;2023-07-31T12:45:30;20.00;76.40
78779;DHT22;68121;52.404;5.318;2023-07-31T12:48:00;20.00;76.20
78779;DHT22;68121;52.404;5.318;2023-07-31T12:50:27;20.00;76.10
78779;DHT22;68121;52.404;5.318;2023-07-31T12:52:53;20.00;76.10
78779;DHT22;68121;52.404;5.318;2023-07-31T12:55:20;20.00;76.00
78779;DHT22;68121;52.404;5.318;2023-07-31T12:57:47;20.00;76.00
78779;DHT22;68121;52.404;5.318;2023-07-31T13:00:13;20.00;76.10
78779;DHT22;68121;52.404;5.318;2023-07-31T13:02:39;20.00;76.10
78779;DHT22;68121;52.404;5.318;2023-07-31T13:05:06;20.00;76.10
78779;DHT22;68121;52.404;5.318;2023-07-31T13:07:32;20.00;76.10
78779;DHT22;68121;52.404;5.318;2023-07-31T13:09:58;20.00;76.20
78779;DHT22;68121;52.404;5.318;2023-07-31T13:12:24;20.00;76.10
78779;DHT22;68121;52.404;5.318;2023-07-31T13:14:50;20.00;76.10
78779;DHT22;68121;52.404;5.318;2023-07-31T13:17:17;20.00;76.00
78779;DHT22;68121;52.404;5.318;2023-07-31T13:19:43;20.00;75.90
78779;DHT22;68121;52.404;5.318;2023-07-31T13:22:09;20.00;75.90
78779;DHT22;68121;52.404;5.318;2023-07-31T13:24:36;20.10;75.80
78779;DHT22;68121;52.404;5.318;2023-07-31T13:27:02;20.10;75.80
78779;DHT22;68121;52.404;5.318;2023-07-31T13:29:28;20.10;75.70
78779;DHT22;68121;52.404;5.318;2023-07-31T13:31:55;20.30;75.70
78779;DHT22;68121;52.404;5.318;2023-07-31T13:34:21;20.30;75.60
78779;DHT22;68121;52.404;5.318;2023-07-31T13:36:50;20.30;75.40
78779;DHT22;68121;52.404;5.318;2023-07-31T13:39:16;20.40;75.30
78779;DHT22;68121;52.404;5.318;2023-07-31T13:41:42;20.50;75.20
78779;DHT22;68121;52.404;5.318;2023-07-31T13:44:08;20.50;75.10
78779;DHT22;68121;52.404;5.318;2023-07-31T13:46:34;20.50;75.00
78779;DHT22;68121;52.404;5.318;2023-07-31T13:49:01;20.50;74.90
78779;DHT22;68121;52.404;5.318;2023-07-31T13:51:27;20.50;74.80
78779;DHT22;68121;52.404;5.318;2023-07-31T13:53:54;20.50;74.80
78779;DHT22;68121;52.404;5.318;2023-07-31T13:56:20;20.50;74.70
78779;DHT22;68121;52.404;5.318;2023-07-31T13:58:46;20.50;74.70
78779;DHT22;68121;52.404;5.318;2023-07-31T14:01:12;20.50;74.70
78779;DHT22;68121;52.404;5.318;2023-07-31T14:03:38;20.50;74.70
78779;DHT22;68121;52.404;5.318;2023-07-31T14:06:04;20.40;74.80
78779;DHT22;68121;52.404;5.318;2023-07-31T14:08:30;20.30;74.90
78779;DHT22;68121;52.404;5.318;2023-07-31T14:10:58;20.30;75.00
78779;DHT22;68121;52.404;5.318;2023-07-31T14:13:24;20.30;75.10
78779;DHT22;68121;52.404;5.318;2023-07-31T14:15:50;20.20;75.20
78779;DHT22;68121;52.404;5.318;2023-07-31T14:18:16;20.20;75.30
78779;DHT22;68121;52.404;5.318;2023-07-31T14:20:42;20.10;75.20
78779;DHT22;68121;52.404;5.318;2023-07-31T14:23:08;20.00;75.40
78779;DHT22;68121;52.404;5.318;2023-07-31T14:25:34;19.80;75.50
78779;DHT22;68121;52.404;5.318;2023-07-31T14:28:00;19.70;75.80
78779;DHT22;68121;52.404;5.318;2023-07-31T14:30:26;19.70;76.00
78779;DHT22;68121;52.404;5.318;2023-07-31T14:32:52;19.70;76.20
78779;DHT22;68121;52.404;5.318;2023-07-31T14:35:18;19.60;76.20
78779;DHT22;68121;52.404;5.318;2023-07-31T14:37:45;19.70;76.40
78779;DHT22;68121;52.404;5.318;2023-07-31T14:40:12;19.70;76.50
78779;DHT22;68121;52.404;5.318;2023-07-31T14:42:40;19.70;76.50
78779;DHT22;68121;52.404;5.318;2023-07-31T14:45:07;19.70;76.40
78779;DHT22;68121;52.404;5.318;2023-07-31T14:47:33;19.70;76.40
78779;DHT22;68121;52.404;5.318;2023-07-31T14:50:00;19.60;76.40
78779;DHT22;68121;52.404;5.318;2023-07-31T14:52:26;19.60;76.50
78779;DHT22;68121;52.404;5.318;2023-07-31T14:54:52;19.70;76.40
78779;DHT22;68121;52.404;5.318;2023-07-31T14:57:18;19.60;76.40
78779;DHT22;68121;52.404;5.318;2023-07-31T14:59:45;19.60;76.50
78779;DHT22;68121;52.404;5.318;2023-07-31T15:02:12;19.70;76.50
78779;DHT22;68121;52.404;5.318;2023-07-31T15:04:38;19.70;76.60
78779;DHT22;68121;52.404;5.318;2023-07-31T15:07:04;19.70;76.60
78779;DHT22;68121;52.404;5.318;2023-07-31T15:09:31;19.70;76.50
78779;DHT22;68121;52.404;5.318;2023-07-31T15:11:57;19.70;76.40
78779;DHT22;68121;52.404;5.318;2023-07-31T15:14:24;19.80;76.30
78779;DHT22;68121;52.404;5.318;2023-07-31T15:16:50;19.80;76.30
78779;DHT22;68121;52.404;5.318;2023-07-31T15:19:16;19.80;76.20
78779;DHT22;68121;52.404;5.318;2023-07-31T15:21:43;19.90;76.10
78779;DHT22;68121;52.404;5.318;2023-07-31T15:24:09;19.90;76.10
78779;DHT22;68121;52.404;5.318;2023-07-31T15:26:37;19.90;76.10
78779;DHT22;68121;52.404;5.318;2023-07-31T15:29:04;19.90;76.00
78779;DHT22;68121;52.404;5.318;2023-07-31T15:31:34;19.80;75.90
78779;DHT22;68121;52.404;5.318;2023-07-31T15:34:00;19.80;75.90
78779;DHT22;68121;52.404;5.318;2023-07-31T15:36:27;19.70;75.90
78779;DHT22;68121;52.404;5.318;2023-07-31T15:38:53;19.70;75.90
78779;DHT22;68121;52.404;5.318;2023-07-31T15:41:19;19.70;76.00
78779;DHT22;68121;52.404;5.318;2023-07-31T15:43:45;19.70;76.00
78779;DHT22;68121;52.404;5.318;2023-07-31T15:46:12;19.70;76.10